createdAt,value
2023-05-13T00:00:37.819Z,17
2023-05-13T00:01:38.867Z,17
2023-05-13T00:02:39.857Z,17
2023-05-13T00:03:40.923Z,17
2023-05-13T00:04:41.868Z,17
2023-05-13T00:05:42.868Z,18
2023-05-13T00:06:43.884Z,17
2023-05-13T00:07:44.810Z,17
2023-05-13T00:08:45.802Z,17
2023-05-13T00:09:46.822Z,16
2023-05-13T00:10:47.791Z,17
2023-05-13T00:11:48.841Z,17
2023-05-13T00:12:49.881Z,16
2023-05-13T00:13:50.802Z,16
2023-05-13T00:14:51.878Z,18
2023-05-13T00:15:52.832Z,18
2023-05-13T00:16:53.780Z,18
2023-05-13T00:17:54.771Z,16
2023-05-13T00:18:55.930Z,16
2023-05-13T00:19:56.870Z,17
2023-05-13T00:20:57.787Z,16
2023-05-13T00:21:58.770Z,17
2023-05-13T00:22:59.777Z,17
2023-05-13T00:24:00.821Z,16
2023-05-13T00:25:01.810Z,17
2023-05-13T00:26:02.806Z,18
2023-05-13T00:27:03.803Z,18
2023-05-13T00:28:04.862Z,17
2023-05-13T00:29:05.889Z,18
2023-05-13T00:30:06.933Z,17
2023-05-13T00:31:07.812Z,18
2023-05-13T00:32:08.843Z,17
2023-05-13T00:33:09.799Z,17
2023-05-13T00:34:10.835Z,16
2023-05-13T00:35:11.822Z,17
2023-05-13T00:36:12.841Z,17
2023-05-13T00:37:13.772Z,18
2023-05-13T00:38:14.752Z,17
2023-05-13T00:39:15.864Z,16
2023-05-13T00:40:16.846Z,16
2023-05-13T00:41:17.821Z,16
2023-05-13T00:42:18.810Z,16
2023-05-13T00:43:19.905Z,17
2023-05-13T00:44:20.942Z,16
2023-05-13T00:45:22.021Z,17
2023-05-13T00:46:22.950Z,17
2023-05-13T00:47:23.891Z,16
2023-05-13T00:48:24.900Z,17
2023-05-13T00:49:25.899Z,17
2023-05-13T00:50:26.868Z,17
2023-05-13T00:51:27.785Z,17
2023-05-13T00:52:28.796Z,16
2023-05-13T00:53:29.784Z,17
2023-05-13T00:54:30.724Z,17
2023-05-13T00:55:31.827Z,16
2023-05-13T00:56:32.796Z,17
2023-05-13T00:57:33.825Z,17
2023-05-13T00:58:34.821Z,18
2023-05-13T00:59:35.842Z,18
2023-05-13T01:00:36.850Z,18
2023-05-13T01:01:38.015Z,17
2023-05-13T01:02:38.845Z,17
2023-05-13T01:03:39.947Z,17
2023-05-13T01:04:40.886Z,17
2023-05-13T01:05:41.811Z,17
2023-05-13T01:06:42.933Z,16
2023-05-13T01:07:43.862Z,17
2023-05-13T01:08:44.840Z,16
2023-05-13T01:09:45.801Z,16
2023-05-13T01:10:46.799Z,17
2023-05-13T01:11:47.921Z,17
2023-05-13T01:12:48.900Z,16
2023-05-13T01:13:49.861Z,16
2023-05-13T01:14:50.876Z,16
2023-05-13T01:15:51.942Z,16
2023-05-13T01:16:52.865Z,16
2023-05-13T01:17:53.954Z,16
2023-05-13T01:18:54.828Z,16
2023-05-13T01:19:55.845Z,16
2023-05-13T01:20:56.834Z,16
2023-05-13T01:21:57.862Z,17
2023-05-13T01:24:04.819Z,16
2023-05-13T01:25:05.859Z,17
2023-05-13T01:26:06.979Z,17
2023-05-13T01:27:07.897Z,17
2023-05-13T01:28:08.872Z,17
2023-05-13T01:29:09.887Z,17
2023-05-13T01:30:10.835Z,18
2023-05-13T01:31:11.872Z,18
2023-05-13T01:32:12.863Z,17
2023-05-13T01:33:13.904Z,16
2023-05-13T01:34:14.858Z,16
2023-05-13T01:35:15.818Z,17
2023-05-13T01:36:16.784Z,16
2023-05-13T01:37:17.877Z,16
2023-05-13T01:38:18.900Z,16
2023-05-13T01:39:19.860Z,16
2023-05-13T01:40:31.569Z,16
2023-05-13T01:41:21.817Z,16
2023-05-13T01:42:22.878Z,17
2023-05-13T01:43:23.873Z,16
2023-05-13T01:44:24.959Z,17
2023-05-13T01:45:25.807Z,17
2023-05-13T01:46:26.905Z,17
2023-05-13T01:47:27.967Z,16
2023-05-13T01:48:28.920Z,16
2023-05-13T01:49:29.975Z,15
2023-05-13T01:50:30.897Z,16
2023-05-13T01:51:31.924Z,16
2023-05-13T01:52:32.862Z,16
2023-05-13T01:53:33.852Z,15
2023-05-13T01:54:34.909Z,16
2023-05-13T01:55:35.831Z,17
2023-05-13T01:56:36.851Z,17
2023-05-13T01:57:37.858Z,16
2023-05-13T01:58:38.837Z,17
2023-05-13T01:59:39.864Z,16
2023-05-13T02:00:40.868Z,15
2023-05-13T02:01:41.872Z,16
2023-05-13T02:02:42.954Z,16
2023-05-13T02:03:43.867Z,17
2023-05-13T02:04:44.814Z,16
2023-05-13T02:05:45.856Z,16
2023-05-13T02:06:46.959Z,15
2023-05-13T02:07:47.840Z,16
2023-05-13T02:08:48.854Z,16
2023-05-13T02:09:49.827Z,17
2023-05-13T02:10:50.917Z,15
2023-05-13T02:11:51.931Z,16
2023-05-13T02:12:52.925Z,16
2023-05-13T02:13:53.887Z,16
2023-05-13T02:14:54.890Z,16
2023-05-13T02:15:56.036Z,17
2023-05-13T02:16:56.920Z,16
2023-05-13T02:17:57.867Z,17
2023-05-13T02:18:58.914Z,16
2023-05-13T02:19:59.864Z,17
2023-05-13T02:21:00.859Z,18
2023-05-13T02:22:02.177Z,16
2023-05-13T02:23:02.999Z,16
2023-05-13T02:24:03.860Z,16
2023-05-13T02:25:04.834Z,16
2023-05-13T02:26:05.902Z,16
2023-05-13T02:27:06.885Z,16
2023-05-13T02:28:07.942Z,15
2023-05-13T02:29:08.818Z,15
2023-05-13T02:30:09.878Z,16
2023-05-13T02:31:10.860Z,16
2023-05-13T02:32:12.038Z,16
2023-05-13T02:33:12.985Z,17
2023-05-13T02:34:13.860Z,17
2023-05-13T02:35:14.860Z,17
2023-05-13T02:36:15.847Z,17
2023-05-13T02:37:16.867Z,17
2023-05-13T02:38:17.938Z,17
2023-05-13T02:39:18.917Z,16
2023-05-13T02:40:19.984Z,17
2023-05-13T02:41:20.957Z,17
2023-05-13T02:42:21.867Z,17
2023-05-13T02:43:22.865Z,16
2023-05-13T02:44:23.963Z,17
2023-05-13T02:45:24.858Z,15
2023-05-13T02:46:25.869Z,16
2023-05-13T02:47:26.970Z,16
2023-05-13T02:48:27.862Z,16
2023-05-13T02:49:28.866Z,16
2023-05-13T02:50:29.870Z,16
2023-05-13T02:51:30.896Z,16
2023-05-13T02:52:31.863Z,16
2023-05-13T02:53:32.866Z,16
2023-05-13T02:54:33.906Z,16
2023-05-13T02:55:34.875Z,16
2023-05-13T02:56:35.940Z,17
2023-05-13T02:57:36.810Z,16
2023-05-13T02:58:37.801Z,16
2023-05-13T02:59:38.892Z,16
2023-05-13T03:00:39.865Z,16
2023-05-13T03:01:40.975Z,15
2023-05-13T03:02:42.002Z,16
2023-05-13T03:03:42.918Z,16
2023-05-13T03:04:43.881Z,16
2023-05-13T03:05:44.850Z,16
2023-05-13T03:06:45.961Z,17
2023-05-13T03:07:46.997Z,16
2023-05-13T03:08:47.869Z,16
2023-05-13T03:09:48.921Z,16
2023-05-13T03:10:49.881Z,16
2023-05-13T03:11:51.069Z,17
2023-05-13T03:12:51.884Z,17
2023-05-13T03:13:52.903Z,16
2023-05-13T03:14:53.886Z,17
2023-05-13T03:15:54.948Z,16
2023-05-13T03:16:55.847Z,16
2023-05-13T03:17:56.972Z,16
2023-05-13T03:18:57.967Z,15
2023-05-13T03:19:58.943Z,15
2023-05-13T03:20:59.871Z,16
2023-05-13T03:22:00.901Z,15
2023-05-13T03:23:01.926Z,16
2023-05-13T03:24:02.860Z,17
2023-05-13T03:25:03.903Z,16
2023-05-13T03:26:04.890Z,16
2023-05-13T03:27:05.891Z,16
2023-05-13T03:28:07.186Z,16
2023-05-13T03:29:07.801Z,16
2023-05-13T03:30:08.882Z,16
2023-05-13T03:31:10.030Z,17
2023-05-13T03:32:10.869Z,17
2023-05-13T03:33:11.918Z,16
2023-05-13T03:34:12.883Z,16
2023-05-13T03:35:13.914Z,16
2023-05-13T03:36:14.976Z,16
2023-05-13T03:37:15.968Z,17
2023-05-13T03:38:16.915Z,16
2023-05-13T03:39:17.948Z,16
2023-05-13T03:40:19.063Z,16
2023-05-13T03:41:19.838Z,16
2023-05-13T03:42:21.128Z,17
2023-05-13T03:43:21.902Z,16
2023-05-13T03:44:22.882Z,17
2023-05-13T03:45:23.899Z,17
2023-05-13T03:46:24.942Z,16
2023-05-13T03:47:25.954Z,16
2023-05-13T03:48:26.935Z,16
2023-05-13T03:49:27.919Z,16
2023-05-13T03:50:28.868Z,16
2023-05-13T03:51:29.877Z,17
2023-05-13T03:52:30.993Z,17
2023-05-13T03:53:31.917Z,17
2023-05-13T03:54:32.899Z,16
2023-05-13T03:55:33.923Z,17
2023-05-13T03:56:34.878Z,17
2023-05-13T03:57:35.828Z,16
2023-05-13T03:58:36.907Z,17
2023-05-13T03:59:37.899Z,17
2023-05-13T04:00:38.880Z,16
2023-05-13T04:01:40.012Z,17
2023-05-13T04:02:40.981Z,16
2023-05-13T04:03:42.029Z,16
2023-05-13T04:04:42.936Z,17
2023-05-13T04:05:43.882Z,17
2023-05-13T04:06:44.937Z,17
2023-05-13T04:07:45.943Z,18
2023-05-13T04:08:46.919Z,18
2023-05-13T04:09:47.888Z,18
2023-05-13T04:10:49.005Z,17
2023-05-13T04:11:50.035Z,17
2023-05-13T04:12:50.922Z,18
2023-05-13T04:13:51.885Z,18
2023-05-13T04:14:52.926Z,17
2023-05-13T04:15:53.984Z,17
2023-05-13T04:16:54.951Z,18
2023-05-13T04:17:55.930Z,17
2023-05-13T04:18:57.029Z,16
2023-05-13T04:19:57.935Z,16
2023-05-13T04:20:58.890Z,17
2023-05-13T04:21:59.935Z,16
2023-05-13T04:23:00.894Z,17
2023-05-13T04:24:01.990Z,18
2023-05-13T04:25:02.968Z,17
2023-05-13T04:26:03.902Z,17
2023-05-13T04:27:04.929Z,18
2023-05-13T04:28:06.041Z,18
2023-05-13T04:29:07.475Z,17
2023-05-13T04:30:08.964Z,17
2023-05-13T04:31:09.930Z,18
2023-05-13T04:32:10.959Z,18
2023-05-13T04:33:12.107Z,17
2023-05-13T04:34:12.997Z,17
2023-05-13T04:35:14.104Z,17
2023-05-13T04:36:15.225Z,17
2023-05-13T04:37:15.906Z,18
2023-05-13T04:38:16.874Z,18
2023-05-13T04:39:17.900Z,18
2023-05-13T04:40:19.099Z,18
2023-05-13T04:41:19.878Z,17
2023-05-13T04:42:20.936Z,17
2023-05-13T04:43:21.942Z,18
2023-05-13T04:44:23.040Z,18
2023-05-13T04:45:24.022Z,18
2023-05-13T04:46:24.994Z,19
2023-05-13T04:47:26.044Z,19
2023-05-13T04:48:26.930Z,19
2023-05-13T04:49:27.961Z,18
2023-05-13T04:50:28.894Z,17
2023-05-13T04:51:29.922Z,17
2023-05-13T04:52:30.955Z,17
2023-05-13T04:53:31.882Z,18
2023-05-13T04:54:32.962Z,18
2023-05-13T04:55:33.983Z,17
2023-05-13T04:56:35.003Z,18
2023-05-13T04:57:35.904Z,18
2023-05-13T04:58:36.899Z,17
2023-05-13T04:59:37.925Z,17
2023-05-13T05:00:39.018Z,17
2023-05-13T05:01:39.989Z,18
2023-05-13T05:02:40.927Z,18
2023-05-13T05:03:42.056Z,19
2023-05-13T05:04:43.009Z,19
2023-05-13T05:05:43.920Z,18
2023-05-13T05:06:45.042Z,18
2023-05-13T05:07:45.937Z,19
2023-05-13T05:08:46.950Z,18
2023-05-13T05:09:48.022Z,17
2023-05-13T05:10:49.057Z,17
2023-05-13T05:11:49.950Z,17
2023-05-13T05:12:50.991Z,17
2023-05-13T05:13:52.045Z,18
2023-05-13T05:14:52.981Z,17
2023-05-13T05:15:54.100Z,18
2023-05-13T05:16:54.947Z,19
2023-05-13T05:17:56.061Z,19
2023-05-13T05:18:57.020Z,19
2023-05-13T05:20:01.058Z,19
2023-05-13T05:21:07.190Z,19
2023-05-13T05:22:08.503Z,19
2023-05-13T05:23:09.942Z,19
2023-05-13T05:24:10.924Z,19
2023-05-13T05:25:11.886Z,18
2023-05-13T05:26:12.947Z,19
2023-05-13T05:27:13.940Z,18
2023-05-13T05:28:14.956Z,18
2023-05-13T05:29:15.962Z,30
2023-05-13T05:30:16.967Z,31
2023-05-13T05:31:18.136Z,56
2023-05-13T05:32:18.946Z,28
2023-05-13T05:33:20.040Z,19
2023-05-13T05:34:21.003Z,18
2023-05-13T05:35:22.078Z,19
2023-05-13T05:36:23.105Z,18
2023-05-13T05:37:23.982Z,20
2023-05-13T05:38:24.930Z,19
2023-05-13T05:39:26.018Z,19
2023-05-13T05:40:27.322Z,19
2023-05-13T05:41:29.509Z,17
2023-05-13T05:42:30.972Z,18
2023-05-13T05:43:31.943Z,17
2023-05-13T05:44:32.901Z,18
2023-05-13T05:45:33.905Z,19
2023-05-13T05:46:35.008Z,19
2023-05-13T05:47:36.014Z,17
2023-05-13T05:48:37.027Z,19
2023-05-13T05:49:38.107Z,19
2023-05-13T05:50:38.959Z,18
2023-05-13T05:51:40.101Z,17
2023-05-13T05:52:40.986Z,19
2023-05-13T05:53:41.980Z,20
2023-05-13T05:54:43.055Z,18
2023-05-13T05:55:44.049Z,19
2023-05-13T05:56:45.083Z,19
2023-05-13T05:57:45.931Z,19
2023-05-13T05:58:47.050Z,19
2023-05-13T05:59:47.984Z,20
2023-05-13T06:00:49.033Z,20
2023-05-13T06:01:50.018Z,19
2023-05-13T06:02:51.038Z,19
2023-05-13T06:03:54.653Z,20
2023-05-13T06:04:52.989Z,19
2023-05-13T06:05:54.005Z,20
2023-05-13T06:06:55.047Z,19
2023-05-13T06:07:56.023Z,20
2023-05-13T06:08:56.987Z,18
2023-05-13T06:09:58.002Z,20
2023-05-13T06:10:58.977Z,19
2023-05-13T06:11:59.963Z,19
2023-05-13T06:13:00.989Z,20
2023-05-13T06:14:01.978Z,19
2023-05-13T06:15:03.052Z,22
2023-05-13T06:16:03.995Z,20
2023-05-13T06:17:05.019Z,20
2023-05-13T06:18:06.088Z,20
2023-05-13T06:19:07.020Z,22
2023-05-13T06:20:08.583Z,20
2023-05-13T06:21:10.066Z,20
2023-05-13T06:22:11.001Z,19
2023-05-13T06:23:12.084Z,20
2023-05-13T06:24:13.053Z,22
2023-05-13T06:25:14.034Z,22
2023-05-13T06:26:14.967Z,23
2023-05-13T06:27:16.022Z,22
2023-05-13T06:28:17.052Z,23
2023-05-13T06:29:18.052Z,22
2023-05-13T06:30:19.228Z,23
2023-05-13T06:31:19.999Z,22
2023-05-13T06:32:21.081Z,22
2023-05-13T06:33:22.100Z,20
2023-05-13T06:34:23.024Z,22
2023-05-13T06:35:24.060Z,22
2023-05-13T06:36:25.153Z,23
2023-05-13T06:37:26.124Z,22
2023-05-13T06:38:27.043Z,23
2023-05-13T06:39:28.110Z,23
2023-05-13T06:40:28.980Z,22
2023-05-13T06:41:30.016Z,23
2023-05-13T06:42:30.947Z,23
2023-05-13T06:43:32.050Z,23
2023-05-13T06:44:33.002Z,23
2023-05-13T06:45:33.985Z,22
2023-05-13T06:46:35.086Z,23
2023-05-13T06:47:36.042Z,23
2023-05-13T06:48:37.042Z,23
2023-05-13T06:49:37.993Z,22
2023-05-13T06:50:39.001Z,22
2023-05-13T06:51:40.139Z,22
2023-05-13T06:52:42.026Z,22
2023-05-13T06:53:42.093Z,23
2023-05-13T06:54:43.020Z,23
2023-05-13T06:55:44.027Z,23
2023-05-13T06:56:45.113Z,24
2023-05-13T06:57:46.061Z,24
2023-05-13T06:58:47.051Z,24
2023-05-13T06:59:48.090Z,24
2023-05-13T07:00:49.203Z,25
2023-05-13T07:01:50.118Z,24
2023-05-13T07:02:51.273Z,24
2023-05-13T07:03:52.152Z,23
2023-05-13T07:04:54.062Z,26
2023-05-13T07:05:55.027Z,24
2023-05-13T07:06:56.024Z,25
2023-05-13T07:07:57.037Z,24
2023-05-13T07:08:58.017Z,25
2023-05-13T07:09:59.003Z,25
2023-05-13T07:11:00.026Z,25
2023-05-13T07:12:01.000Z,25
2023-05-13T07:13:02.194Z,26
2023-05-13T07:14:03.185Z,25
2023-05-13T07:15:04.157Z,26
2023-05-13T07:16:05.196Z,26
2023-05-13T07:17:06.068Z,25
2023-05-13T07:18:07.167Z,26
2023-05-13T07:19:08.132Z,26
2023-05-13T07:20:09.034Z,26
2023-05-13T07:21:09.986Z,26
2023-05-13T07:22:11.010Z,26
2023-05-13T07:23:12.121Z,25
2023-05-13T07:24:13.018Z,28
2023-05-13T07:25:14.033Z,26
2023-05-13T07:26:14.992Z,25
2023-05-13T07:27:16.034Z,25
2023-05-13T07:28:17.017Z,26
2023-05-13T07:29:18.045Z,25
2023-05-13T07:30:19.049Z,24
2023-05-13T07:31:20.148Z,26
2023-05-13T07:32:21.112Z,25
2023-05-13T07:33:22.077Z,26
2023-05-13T07:34:23.079Z,25
2023-05-13T07:35:24.223Z,25
2023-05-13T07:36:24.997Z,27
2023-05-13T07:37:25.957Z,26
2023-05-13T07:38:27.109Z,26
2023-05-13T07:39:28.059Z,26
2023-05-13T07:40:29.123Z,25
2023-05-13T07:41:30.013Z,25
2023-05-13T07:42:31.117Z,26
2023-05-13T07:43:32.084Z,27
2023-05-13T07:44:33.111Z,27
2023-05-13T07:45:34.128Z,26
2023-05-13T07:46:35.035Z,27
2023-05-13T07:47:36.043Z,27
2023-05-13T07:48:37.044Z,26
2023-05-13T07:49:38.027Z,25
2023-05-13T07:50:39.082Z,27
2023-05-13T07:51:40.005Z,28
2023-05-13T07:52:41.078Z,26
2023-05-13T07:53:42.066Z,28
2023-05-13T07:54:43.021Z,26
2023-05-13T07:55:44.111Z,27
2023-05-13T07:56:45.054Z,31
2023-05-13T07:57:46.073Z,29
2023-05-13T07:58:47.045Z,28
2023-05-13T07:59:48.009Z,27
2023-05-13T08:00:49.063Z,27
2023-05-13T08:01:50.137Z,26
2023-05-13T08:02:51.270Z,29
2023-05-13T08:03:52.134Z,26
2023-05-13T08:04:53.073Z,27
2023-05-13T08:05:54.108Z,26
2023-05-13T08:06:55.147Z,29
2023-05-13T08:07:56.148Z,26
2023-05-13T08:08:57.340Z,28
2023-05-13T08:09:58.023Z,27
2023-05-13T08:10:59.125Z,28
2023-05-13T08:12:00.095Z,27
2023-05-13T08:13:01.137Z,28
2023-05-13T08:14:02.092Z,27
2023-05-13T08:15:03.080Z,28
2023-05-13T08:16:04.073Z,28
2023-05-13T08:17:05.049Z,27
2023-05-13T08:18:06.145Z,28
2023-05-13T08:19:07.155Z,28
2023-05-13T08:20:08.034Z,28
2023-05-13T08:21:09.040Z,27
2023-05-13T08:22:10.063Z,28
2023-05-13T08:23:11.104Z,28
2023-05-13T08:24:12.170Z,28
2023-05-13T08:25:13.018Z,28
2023-05-13T08:26:14.036Z,28
2023-05-13T08:27:15.158Z,28
2023-05-13T08:28:16.081Z,28
2023-05-13T08:29:17.038Z,31
2023-05-13T08:30:18.122Z,31
2023-05-13T08:31:19.103Z,33
2023-05-13T08:32:20.119Z,30
2023-05-13T08:33:21.018Z,28
2023-05-13T08:34:22.142Z,27
2023-05-13T08:35:23.228Z,28
2023-05-13T08:36:24.022Z,28
2023-05-13T08:37:25.013Z,27
2023-05-13T08:38:26.100Z,27
2023-05-13T08:39:27.086Z,28
2023-05-13T08:40:28.120Z,28
2023-05-13T08:41:29.199Z,27
2023-05-13T08:42:30.122Z,27
2023-05-13T08:43:31.097Z,27
2023-05-13T08:44:32.066Z,28
2023-05-13T08:45:33.142Z,29
2023-05-13T08:46:34.192Z,29
2023-05-13T08:47:36.747Z,28
2023-05-13T08:48:36.022Z,28
2023-05-13T08:49:37.066Z,27
2023-05-13T08:50:38.147Z,28
2023-05-13T08:51:39.202Z,29
2023-05-13T08:52:40.132Z,29
2023-05-13T08:53:41.101Z,29
2023-05-13T08:54:42.113Z,28
2023-05-13T08:55:43.163Z,28
2023-05-13T08:56:44.077Z,28
2023-05-13T08:57:45.141Z,28
2023-05-13T08:58:46.105Z,28
2023-05-13T08:59:47.164Z,27
2023-05-13T09:00:48.098Z,27
2023-05-13T09:01:49.202Z,29
2023-05-13T09:02:50.015Z,28
2023-05-13T09:03:51.050Z,30
2023-05-13T09:04:52.160Z,30
2023-05-13T09:05:53.085Z,29
2023-05-13T09:06:54.082Z,30
2023-05-13T09:07:55.046Z,30
2023-05-13T09:08:56.146Z,29
2023-05-13T09:09:57.061Z,30
2023-05-13T09:10:58.058Z,29
2023-05-13T09:11:59.111Z,29
2023-05-13T09:13:00.127Z,30
2023-05-13T09:14:01.179Z,29
2023-05-13T09:15:02.243Z,29
2023-05-13T09:16:03.224Z,29
2023-05-13T09:17:04.212Z,29
2023-05-13T09:18:05.321Z,29
2023-05-13T09:19:06.324Z,29
2023-05-13T09:20:07.257Z,29
2023-05-13T09:21:08.100Z,28
2023-05-13T09:22:09.064Z,28
2023-05-13T09:23:10.094Z,29
2023-05-13T09:24:11.517Z,28
2023-05-13T09:25:12.064Z,28
2023-05-13T09:26:13.066Z,29
2023-05-13T09:27:14.069Z,28
2023-05-13T09:28:15.034Z,28
2023-05-13T09:29:16.021Z,28
2023-05-13T09:30:17.130Z,28
2023-05-13T09:31:18.144Z,28
2023-05-13T09:32:19.119Z,27
2023-05-13T09:33:20.419Z,28
2023-05-13T09:34:21.236Z,29
2023-05-13T09:35:22.329Z,28
2023-05-13T09:36:23.119Z,29
2023-05-13T09:37:24.218Z,29
2023-05-13T09:38:25.126Z,30
2023-05-13T09:39:26.093Z,30
2023-05-13T09:40:27.178Z,30
2023-05-13T09:41:28.172Z,28
2023-05-13T09:42:30.282Z,30
2023-05-13T09:43:31.107Z,30
2023-05-13T09:44:32.221Z,30
2023-05-13T09:45:33.115Z,30
2023-05-13T09:46:34.156Z,29
2023-05-13T09:47:35.189Z,29
2023-05-13T09:48:36.193Z,28
2023-05-13T09:49:37.274Z,33
2023-05-13T09:50:38.076Z,29
2023-05-13T09:51:39.107Z,30
2023-05-13T09:52:40.126Z,30
2023-05-13T09:53:44.077Z,29
2023-05-13T09:54:45.233Z,29
2023-05-13T09:55:46.129Z,25
2023-05-13T09:56:47.098Z,26
2023-05-13T09:57:48.132Z,27
2023-05-13T09:58:49.150Z,26
2023-05-13T09:59:50.081Z,27
2023-05-13T10:00:51.205Z,26
2023-05-13T10:01:52.228Z,25
2023-05-13T10:02:53.132Z,25
2023-05-13T10:03:54.136Z,25
2023-05-13T10:04:55.082Z,25
2023-05-13T10:05:56.137Z,25
2023-05-13T10:06:57.152Z,25
2023-05-13T10:07:58.122Z,26
2023-05-13T10:08:59.086Z,26
2023-05-13T10:10:00.161Z,27
2023-05-13T10:11:01.204Z,27
2023-05-13T10:12:02.193Z,27
2023-05-13T10:13:03.142Z,27
2023-05-13T10:14:04.113Z,27
2023-05-13T10:15:05.285Z,28
2023-05-13T10:16:06.175Z,28
2023-05-13T10:17:07.174Z,27
2023-05-13T10:18:08.193Z,27
2023-05-13T10:19:09.200Z,27
2023-05-13T10:20:10.141Z,26
2023-05-13T10:21:11.266Z,29
2023-05-13T10:22:12.146Z,29
2023-05-13T10:23:13.160Z,28
2023-05-13T10:24:14.101Z,28
2023-05-13T10:25:15.128Z,28
2023-05-13T10:26:16.112Z,28
2023-05-13T10:27:17.124Z,27
2023-05-13T10:28:18.085Z,29
2023-05-13T10:29:19.158Z,30
2023-05-13T10:30:20.350Z,29
2023-05-13T10:31:21.314Z,28
2023-05-13T10:32:22.169Z,29
2023-05-13T10:33:23.134Z,29
2023-05-13T10:34:24.080Z,30
2023-05-13T10:35:25.181Z,31
2023-05-13T10:36:26.153Z,30
2023-05-13T10:37:27.270Z,30
2023-05-13T10:38:28.072Z,30
2023-05-13T10:39:29.125Z,30
2023-05-13T10:40:30.146Z,28
2023-05-13T10:41:31.075Z,29
2023-05-13T10:42:32.183Z,29
2023-05-13T10:43:33.125Z,29
2023-05-13T10:44:34.216Z,29
2023-05-13T10:45:35.106Z,28
2023-05-13T10:46:36.346Z,28
2023-05-13T10:47:37.180Z,30
2023-05-13T10:48:38.284Z,29
2023-05-13T10:49:39.157Z,28
2023-05-13T10:50:40.159Z,30
2023-05-13T10:51:41.163Z,30
2023-05-13T10:52:42.216Z,29
2023-05-13T10:53:43.220Z,28
2023-05-13T10:54:44.218Z,29
2023-05-13T10:55:45.160Z,29
2023-05-13T10:56:46.111Z,30
2023-05-13T10:57:47.176Z,29
2023-05-13T10:58:48.216Z,28
2023-05-13T10:59:49.138Z,28
2023-05-13T11:00:50.114Z,28
2023-05-13T11:01:51.199Z,28
2023-05-13T11:02:52.281Z,30
2023-05-13T11:03:53.597Z,30
2023-05-13T11:04:54.117Z,30
2023-05-13T11:05:55.137Z,28
2023-05-13T11:06:56.242Z,27
2023-05-13T11:07:57.383Z,27
2023-05-13T11:08:58.155Z,27
2023-05-13T11:09:59.165Z,28
2023-05-13T11:11:00.117Z,29
2023-05-13T11:12:01.200Z,30
2023-05-13T11:13:02.208Z,30
2023-05-13T11:14:03.218Z,29
2023-05-13T11:15:04.188Z,28
2023-05-13T11:16:05.167Z,30
2023-05-13T11:17:06.104Z,28
2023-05-13T11:18:07.193Z,28
2023-05-13T11:19:08.316Z,29
2023-05-13T11:20:09.223Z,33
2023-05-13T11:21:10.212Z,28
2023-05-13T11:22:11.129Z,28
2023-05-13T11:23:12.242Z,27
2023-05-13T11:24:13.182Z,27
2023-05-13T11:25:14.119Z,26
2023-05-13T11:26:15.158Z,26
2023-05-13T11:27:16.124Z,26
2023-05-13T11:28:17.302Z,27
2023-05-13T11:29:18.117Z,27
2023-05-13T11:30:19.269Z,27
2023-05-13T11:31:20.160Z,27
2023-05-13T11:32:21.158Z,26
2023-05-13T11:33:22.153Z,26
2023-05-13T11:34:23.119Z,25
2023-05-13T11:35:24.305Z,29
2023-05-13T11:36:25.198Z,26
2023-05-13T11:37:26.194Z,27
2023-05-13T11:38:27.238Z,26
2023-05-13T11:39:28.149Z,27
2023-05-13T11:40:29.253Z,27
2023-05-13T11:41:30.166Z,27
2023-05-13T11:42:31.168Z,28
2023-05-13T11:43:34.090Z,26
2023-05-13T11:44:33.148Z,26
2023-05-13T11:45:34.266Z,27
2023-05-13T11:46:35.219Z,27
2023-05-13T11:47:36.262Z,27
2023-05-13T11:48:37.318Z,27
2023-05-13T11:49:38.174Z,26
2023-05-13T11:50:39.201Z,26
2023-05-13T11:51:40.187Z,26
2023-05-13T11:52:41.144Z,27
2023-05-13T11:53:42.419Z,26
2023-05-13T11:54:43.201Z,26
2023-05-13T11:55:44.219Z,28
2023-05-13T11:56:45.298Z,27
2023-05-13T11:57:46.279Z,27
2023-05-13T11:58:47.183Z,26
2023-05-13T11:59:48.554Z,27
2023-05-13T12:00:49.186Z,27
2023-05-13T12:01:50.183Z,27
2023-05-13T12:02:51.198Z,28
2023-05-13T12:03:52.248Z,29
2023-05-13T12:04:53.335Z,27
2023-05-13T12:05:54.126Z,27
2023-05-13T12:06:55.204Z,28
2023-05-13T12:07:56.220Z,29
2023-05-13T12:08:57.322Z,29
2023-05-13T12:09:58.200Z,29
2023-05-13T12:10:59.163Z,28
2023-05-13T12:12:00.245Z,28
2023-05-13T12:13:01.125Z,27
2023-05-13T12:14:02.253Z,27
2023-05-13T12:15:03.282Z,27
2023-05-13T12:16:04.227Z,26
2023-05-13T12:17:05.191Z,27
2023-05-13T12:18:06.270Z,28
2023-05-13T12:19:07.414Z,27
2023-05-13T12:20:08.293Z,28
2023-05-13T12:21:09.169Z,29
2023-05-13T12:22:10.320Z,27
2023-05-13T12:23:11.186Z,27
2023-05-13T12:24:12.140Z,26
2023-05-13T12:25:13.235Z,26
2023-05-13T12:26:14.187Z,25
2023-05-13T12:27:15.222Z,27
2023-05-13T12:28:16.244Z,26
2023-05-13T12:29:17.226Z,26
2023-05-13T12:30:18.217Z,27
2023-05-13T12:31:19.216Z,27
2023-05-13T12:32:20.223Z,27
2023-05-13T12:33:21.144Z,27
2023-05-13T12:34:22.171Z,27
2023-05-13T12:35:23.441Z,25
2023-05-13T12:36:24.260Z,24
2023-05-13T12:37:25.215Z,27
2023-05-13T12:38:26.139Z,25
2023-05-13T12:39:27.262Z,25
2023-05-13T12:40:28.187Z,25
2023-05-13T12:41:29.293Z,26
2023-05-13T12:42:30.248Z,26
2023-05-13T12:43:31.241Z,26
2023-05-13T12:44:32.215Z,26
2023-05-13T12:45:33.194Z,26
2023-05-13T12:46:34.203Z,26
2023-05-13T12:47:35.186Z,25
2023-05-13T12:48:36.233Z,25
2023-05-13T12:49:37.373Z,25
2023-05-13T12:50:38.195Z,24
2023-05-13T12:51:39.385Z,23
2023-05-13T12:52:40.234Z,24
2023-05-13T12:53:41.260Z,24
2023-05-13T12:54:42.167Z,25
2023-05-13T12:55:43.252Z,25
2023-05-13T12:56:44.259Z,24
2023-05-13T12:57:45.363Z,25
2023-05-13T12:58:46.194Z,24
2023-05-13T12:59:47.249Z,24
2023-05-13T13:00:48.192Z,24
2023-05-13T13:01:49.237Z,23
2023-05-13T13:02:50.323Z,24
2023-05-13T13:03:51.394Z,24
2023-05-13T13:04:52.167Z,25
2023-05-13T13:05:53.224Z,24
2023-05-13T13:06:54.281Z,24
2023-05-13T13:07:55.220Z,25
2023-05-13T13:08:56.206Z,26
2023-05-13T13:09:57.280Z,25
2023-05-13T13:10:58.324Z,25
2023-05-13T13:11:59.297Z,26
2023-05-13T13:13:00.204Z,26
2023-05-13T13:14:01.280Z,26
2023-05-13T13:15:02.375Z,25
2023-05-13T13:16:03.351Z,25
2023-05-13T13:17:04.237Z,26
2023-05-13T13:18:05.297Z,25
2023-05-13T13:19:06.343Z,26
2023-05-13T13:20:07.676Z,26
2023-05-13T13:21:08.221Z,25
2023-05-13T13:22:09.225Z,26
2023-05-13T13:23:10.222Z,25
2023-05-13T13:24:11.262Z,26
2023-05-13T13:25:12.170Z,26
2023-05-13T13:26:13.156Z,26
2023-05-13T13:27:14.240Z,26
2023-05-13T13:28:15.247Z,26
2023-05-13T13:29:16.220Z,25
2023-05-13T13:30:17.255Z,25
2023-05-13T13:31:18.277Z,25
2023-05-13T13:32:19.376Z,25
2023-05-13T13:33:20.262Z,25
2023-05-13T13:34:21.397Z,28
2023-05-13T13:35:23.092Z,26
2023-05-13T13:36:24.274Z,26
2023-05-13T13:37:25.590Z,25
2023-05-13T13:38:27.350Z,26
2023-05-13T13:39:28.316Z,25
2023-05-13T13:40:29.235Z,25
2023-05-13T13:41:30.322Z,24
2023-05-13T13:43:37.349Z,27
2023-05-13T13:44:38.280Z,27
2023-05-13T13:45:39.265Z,25
2023-05-13T13:46:40.288Z,25
2023-05-13T13:47:41.415Z,27
2023-05-13T13:48:42.230Z,26
2023-05-13T13:49:43.290Z,26
2023-05-13T13:50:46.053Z,27
2023-05-13T13:51:45.341Z,27
2023-05-13T13:52:46.216Z,27
2023-05-13T13:53:47.250Z,28
2023-05-13T13:54:48.266Z,28
2023-05-13T13:55:49.378Z,26
2023-05-13T13:56:50.434Z,27
2023-05-13T13:57:51.443Z,26
2023-05-13T13:58:52.386Z,26
2023-05-13T13:59:53.276Z,26
2023-05-13T14:00:54.276Z,26
2023-05-13T14:01:55.474Z,25
2023-05-13T14:02:56.383Z,26
2023-05-13T14:03:57.491Z,36
2023-05-13T14:04:58.302Z,31
2023-05-13T14:05:59.325Z,31
2023-05-13T14:07:00.248Z,30
2023-05-13T14:08:01.295Z,35
2023-05-13T14:09:02.299Z,33
2023-05-13T14:10:03.359Z,31
2023-05-13T14:11:04.402Z,33
2023-05-13T14:12:05.326Z,30
2023-05-13T14:13:06.292Z,28
2023-05-13T14:14:07.253Z,28
2023-05-13T14:15:08.324Z,34
2023-05-13T14:16:09.451Z,29
2023-05-13T14:17:12.373Z,27
2023-05-13T14:18:12.373Z,26
2023-05-13T14:19:13.469Z,28
2023-05-13T14:20:14.262Z,26
2023-05-13T14:21:15.322Z,26
2023-05-13T14:22:16.240Z,28
2023-05-13T14:23:17.316Z,28
2023-05-13T14:24:18.354Z,27
2023-05-13T14:25:19.301Z,53
2023-05-13T14:26:20.365Z,35
2023-05-13T14:27:21.272Z,29
2023-05-13T14:28:24.476Z,37
2023-05-13T14:29:23.306Z,30
2023-05-13T14:30:24.432Z,31
2023-05-13T14:31:25.411Z,53
2023-05-13T14:32:26.375Z,35